createdAt,value
2019-02-21T00:02:00.223Z,68.17
2019-02-21T00:04:29.782Z,68.03
2019-02-21T00:06:59.265Z,67.91
2019-02-21T00:09:28.652Z,67.80
2019-02-21T00:11:57.969Z,67.77
2019-02-21T00:14:27.329Z,67.74
2019-02-21T00:16:56.740Z,67.81
2019-02-21T00:19:26.137Z,67.81
2019-02-21T00:21:55.500Z,67.87
2019-02-21T00:24:24.860Z,67.87
2019-02-21T00:26:54.335Z,67.92
2019-02-21T00:29:23.657Z,67.92
2019-02-21T00:31:53.021Z,67.64
2019-02-21T00:34:22.364Z,67.77
2019-02-21T00:36:51.742Z,67.69
2019-02-21T00:39:21.108Z,67.84
2019-02-21T00:41:50.755Z,67.93
2019-02-21T00:44:20.178Z,68.01
2019-02-21T00:46:49.578Z,67.90
2019-02-21T00:49:18.861Z,67.95
2019-02-21T00:51:48.167Z,67.87
2019-02-21T00:54:17.521Z,67.84
2019-02-21T00:56:46.832Z,67.84
2019-02-21T00:59:16.174Z,67.96
2019-02-21T01:01:45.474Z,67.88
2019-02-21T01:04:14.802Z,67.88
2019-02-21T01:06:44.130Z,68.18
2019-02-21T01:09:13.475Z,68.16
2019-02-21T01:11:42.795Z,68.58
2019-02-21T01:14:12.201Z,68.58
2019-02-21T01:16:41.702Z,68.43
2019-02-21T01:19:11.112Z,68.53
2019-02-21T01:21:40.464Z,68.54
2019-02-21T01:24:09.840Z,68.33
2019-02-21T01:26:39.221Z,68.55
2019-02-21T01:29:08.568Z,68.65
2019-02-21T01:31:37.940Z,68.82
2019-02-21T01:34:07.375Z,68.85
2019-02-21T01:36:49.081Z,68.89
2019-02-21T01:39:18.353Z,68.87
2019-02-21T01:41:47.665Z,68.87
2019-02-21T01:44:17.023Z,68.57
2019-02-21T01:46:46.462Z,68.57
2019-02-21T01:49:15.778Z,68.72
2019-02-21T01:51:45.061Z,68.85
2019-02-21T01:54:14.395Z,68.85
2019-02-21T01:56:46.765Z,69.07
2019-02-21T01:59:16.167Z,69.07
2019-02-21T02:01:45.497Z,68.95
2019-02-21T02:04:14.821Z,69.03
2019-02-21T02:06:44.157Z,69.18
2019-02-21T02:09:13.577Z,68.92
2019-02-21T02:11:42.903Z,68.92
2019-02-21T02:14:12.255Z,68.82
2019-02-21T02:16:41.556Z,68.74
2019-02-21T02:19:10.830Z,68.36
2019-02-21T02:21:40.133Z,68.36
2019-02-21T02:24:09.531Z,68.26
2019-02-21T02:26:38.861Z,68.56
2019-02-21T02:29:08.185Z,68.30
2019-02-21T02:31:37.519Z,68.09
2019-02-21T02:34:06.838Z,67.92
2019-02-21T02:36:36.260Z,67.92
2019-02-21T02:39:05.866Z,67.73
2019-02-21T02:41:35.251Z,67.70
2019-02-21T02:44:04.551Z,67.70
2019-02-21T02:46:33.898Z,67.76
2019-02-21T02:49:03.231Z,67.89
2019-02-21T02:51:32.633Z,67.89
2019-02-21T02:54:01.929Z,68.08
2019-02-21T02:56:31.237Z,67.86
2019-02-21T02:59:00.599Z,67.76
2019-02-21T03:01:34.891Z,67.96
2019-02-21T03:03:59.355Z,67.78
2019-02-21T03:06:28.666Z,67.78
2019-02-21T03:08:58.011Z,67.54
2019-02-21T03:11:27.349Z,67.58
2019-02-21T03:13:56.826Z,67.76
2019-02-21T03:16:26.175Z,67.76
2019-02-21T03:18:55.482Z,67.75
2019-02-21T03:21:24.778Z,67.69
2019-02-21T03:23:54.106Z,67.72
2019-02-21T03:26:23.395Z,67.73
2019-02-21T03:28:52.785Z,67.73
2019-02-21T03:31:22.083Z,67.18
2019-02-21T03:33:51.397Z,67.07
2019-02-21T03:36:20.733Z,67.07
2019-02-21T03:38:50.284Z,67.23
2019-02-21T03:41:19.748Z,67.23
2019-02-21T03:43:49.193Z,66.93
2019-02-21T03:46:18.586Z,66.82
2019-02-21T03:48:47.894Z,66.17
2019-02-21T03:51:17.218Z,65.70
2019-02-21T03:53:46.556Z,66.07
2019-02-21T03:56:15.885Z,65.77
2019-02-21T03:58:45.278Z,65.75
2019-02-21T04:01:14.610Z,65.75
2019-02-21T04:03:43.947Z,65.48
2019-02-21T04:06:13.292Z,65.63
2019-02-21T04:08:42.703Z,65.63
2019-02-21T04:11:12.098Z,65.65
2019-02-21T04:13:41.407Z,65.78
2019-02-21T04:16:10.756Z,65.56
2019-02-21T04:18:40.288Z,66.12
2019-02-21T04:21:09.584Z,66.12
2019-02-21T04:23:38.962Z,66.32
2019-02-21T04:26:08.381Z,66.41
2019-02-21T04:28:37.781Z,66.41
2019-02-21T04:31:07.087Z,66.51
2019-02-21T04:33:36.489Z,66.56
2019-02-21T04:36:05.877Z,66.56
2019-02-21T04:38:35.187Z,67.04
2019-02-21T04:41:04.746Z,67.04
2019-02-21T04:43:34.097Z,67.18
2019-02-21T04:46:03.498Z,67.36
2019-02-21T04:48:32.788Z,67.59
2019-02-21T04:51:02.099Z,67.75
2019-02-21T04:53:31.374Z,67.79
2019-02-21T04:56:00.705Z,68.14
2019-02-21T04:58:29.999Z,68.19
2019-02-21T05:00:59.298Z,68.10
2019-02-21T05:03:28.591Z,68.33
2019-02-21T05:05:58.041Z,68.60
2019-02-21T05:08:27.332Z,68.67
2019-02-21T05:10:56.732Z,68.74
2019-02-21T05:13:26.110Z,68.64
2019-02-21T05:15:55.527Z,69.04
2019-02-21T05:18:24.796Z,69.00
2019-02-21T05:20:54.173Z,69.36
2019-02-21T05:23:23.524Z,69.36
2019-02-21T05:25:52.812Z,69.02
2019-02-21T05:28:32.565Z,69.09
2019-02-21T05:31:08.810Z,69.00
2019-02-21T05:34:09.125Z,68.81
2019-02-21T05:37:00.169Z,68.88
2019-02-21T05:39:41.934Z,68.77
2019-02-21T05:42:29.910Z,68.97
2019-02-21T05:45:11.688Z,68.95
2019-02-21T05:47:46.435Z,68.88
2019-02-21T05:50:41.077Z,68.67
2019-02-21T05:53:24.133Z,68.67
2019-02-21T05:56:10.102Z,68.89
2019-02-21T05:58:49.837Z,68.97
2019-02-21T06:01:44.629Z,68.42
2019-02-21T06:04:31.869Z,68.45
2019-02-21T06:07:11.967Z,68.23
2019-02-21T06:09:47.029Z,68.44
2019-02-21T06:12:39.757Z,68.53
2019-02-21T06:15:28.151Z,68.74
2019-02-21T06:18:14.203Z,68.63
2019-02-21T06:20:58.790Z,68.75
2019-02-21T06:23:50.212Z,68.72
2019-02-21T06:26:33.971Z,69.30
2019-02-21T06:29:22.754Z,69.30
2019-02-21T06:31:52.335Z,68.65
2019-02-21T06:34:22.180Z,68.66
2019-02-21T06:36:51.420Z,68.66
2019-02-21T06:39:24.931Z,68.89
2019-02-21T06:41:59.777Z,69.02
2019-02-21T06:44:22.404Z,69.02
2019-02-21T06:46:51.682Z,69.13
2019-02-21T06:49:31.827Z,68.79
2019-02-21T06:51:50.438Z,68.79
2019-02-21T06:54:19.617Z,69.00
2019-02-21T06:56:48.955Z,69.36
2019-02-21T06:59:18.517Z,69.05
2019-02-21T07:01:47.855Z,69.27
2019-02-21T07:04:17.183Z,69.27
2019-02-21T07:06:46.455Z,69.29
2019-02-21T07:09:18.939Z,68.67
2019-02-21T07:11:48.189Z,68.73
2019-02-21T07:14:17.598Z,68.45
2019-02-21T07:16:47.382Z,68.46
2019-02-21T07:19:16.663Z,68.46
2019-02-21T07:21:45.927Z,68.30
2019-02-21T07:24:15.226Z,68.73
2019-02-21T07:26:44.497Z,67.87
2019-02-21T07:29:13.804Z,67.92
2019-02-21T07:31:45.049Z,67.77
2019-02-21T07:34:14.428Z,67.64
2019-02-21T07:36:43.932Z,67.81
2019-02-21T07:39:17.196Z,67.81
2019-02-21T07:41:42.608Z,67.28
2019-02-21T07:44:12.647Z,66.83
2019-02-21T07:46:41.435Z,67.08
2019-02-21T07:49:10.791Z,66.96
2019-02-21T07:51:41.569Z,67.08
2019-02-21T07:54:09.424Z,67.04
2019-02-21T07:56:42.073Z,66.84
2019-02-21T07:59:08.163Z,66.55
2019-02-21T08:01:37.561Z,66.92
2019-02-21T08:04:06.901Z,67.05
2019-02-21T08:06:36.167Z,66.62
2019-02-21T08:09:06.269Z,66.33
2019-02-21T08:11:35.693Z,66.57
2019-02-21T08:14:04.999Z,66.26
2019-02-21T08:16:34.383Z,65.83
2019-02-21T08:19:03.716Z,65.83
2019-02-21T08:21:33.227Z,65.31
2019-02-21T08:24:02.552Z,65.23
2019-02-21T08:26:31.910Z,64.68
2019-02-21T08:29:01.284Z,65.02
2019-02-21T08:31:30.576Z,65.18
2019-02-21T08:34:09.574Z,65.57
2019-02-21T08:36:39.089Z,65.17
2019-02-21T08:39:09.924Z,65.57
2019-02-21T08:41:39.195Z,65.52
2019-02-21T08:44:08.627Z,65.69
2019-02-21T08:46:38.052Z,65.59
2019-02-21T08:49:10.462Z,65.54
2019-02-21T08:51:39.905Z,65.53
2019-02-21T08:54:11.371Z,65.53
2019-02-21T08:56:38.558Z,65.18
2019-02-21T08:59:08.026Z,65.36
2019-02-21T09:01:37.476Z,65.07
2019-02-21T09:04:13.355Z,64.55
2019-02-21T09:06:36.209Z,64.67
2019-02-21T09:09:05.656Z,64.27
2019-02-21T09:11:34.931Z,63.79
2019-02-21T09:14:04.289Z,63.43
2019-02-21T09:16:33.552Z,63.15
2019-02-21T09:19:02.863Z,63.16
2019-02-21T09:21:32.164Z,63.00
2019-02-21T09:24:01.479Z,63.00
2019-02-21T09:26:30.919Z,62.70
2019-02-21T09:29:00.294Z,63.01
2019-02-21T09:31:29.594Z,62.65
2019-02-21T09:33:58.863Z,61.69
2019-02-21T09:36:28.132Z,61.81
2019-02-21T09:38:57.657Z,61.95
2019-02-21T09:41:28.683Z,61.88
2019-02-21T09:43:56.361Z,61.23
2019-02-21T09:46:25.706Z,61.15
2019-02-21T09:48:57.377Z,60.99
2019-02-21T09:51:30.165Z,60.84
2019-02-21T09:53:59.423Z,60.82
2019-02-21T09:56:30.719Z,61.09
2019-02-21T09:58:58.099Z,61.01
2019-02-21T10:01:27.486Z,59.92
2019-02-21T10:03:57.415Z,59.55
2019-02-21T10:06:26.129Z,59.36
2019-02-21T10:08:55.553Z,59.48
2019-02-21T10:11:24.891Z,59.99
2019-02-21T10:13:54.160Z,60.13
2019-02-21T10:16:23.750Z,59.75
2019-02-21T10:18:53.000Z,59.75
2019-02-21T10:21:23.877Z,60.82
2019-02-21T10:23:53.169Z,60.55
2019-02-21T10:26:23.011Z,60.64
2019-02-21T10:28:52.277Z,60.61
2019-02-21T10:31:21.954Z,60.53
2019-02-21T10:33:51.392Z,60.14
2019-02-21T10:36:20.693Z,60.38
2019-02-21T10:38:50.037Z,60.61
2019-02-21T10:41:19.454Z,60.54
2019-02-21T10:43:48.781Z,60.97
2019-02-21T10:46:18.300Z,60.27
2019-02-21T10:48:47.781Z,60.20
2019-02-21T10:51:17.162Z,59.43
2019-02-21T10:53:46.462Z,58.87
2019-02-21T10:56:15.778Z,58.59
2019-02-21T10:58:45.164Z,57.61
2019-02-21T11:01:14.457Z,57.36
2019-02-21T11:03:43.961Z,57.70
2019-02-21T11:06:13.341Z,58.00
2019-02-21T11:08:44.773Z,57.60
2019-02-21T11:11:11.911Z,57.55
2019-02-21T11:13:41.192Z,58.30
2019-02-21T11:16:10.497Z,58.74
2019-02-21T11:18:39.794Z,58.75
2019-02-21T11:21:09.079Z,58.63
2019-02-21T11:23:38.416Z,58.74
2019-02-21T11:26:07.727Z,58.75
2019-02-21T11:28:37.070Z,58.62
2019-02-21T11:31:06.401Z,59.55
2019-02-21T11:33:35.722Z,60.01
2019-02-21T11:36:04.998Z,60.41
2019-02-21T11:38:34.254Z,61.43
2019-02-21T11:41:03.591Z,63.12
2019-02-21T11:43:32.898Z,64.49
2019-02-21T11:46:02.217Z,65.00
2019-02-21T11:48:31.475Z,65.07
2019-02-21T11:51:00.749Z,65.68
2019-02-21T11:53:30.052Z,65.64
2019-02-21T11:55:59.349Z,65.01
2019-02-21T11:58:28.665Z,65.99
2019-02-21T12:00:57.928Z,65.21
2019-02-21T12:03:27.237Z,64.98
2019-02-21T12:05:56.485Z,64.92
2019-02-21T12:08:25.741Z,63.97
2019-02-21T12:10:55.063Z,63.54
2019-02-21T12:13:24.367Z,63.01
2019-02-21T12:15:53.634Z,62.21
2019-02-21T12:18:22.910Z,61.68
2019-02-21T12:20:52.227Z,61.58
2019-02-21T12:23:21.496Z,61.79
2019-02-21T12:25:50.771Z,61.47
2019-02-21T12:28:20.053Z,60.75
2019-02-21T12:30:49.377Z,60.91
2019-02-21T12:33:18.671Z,60.47
2019-02-21T12:35:47.973Z,60.56
2019-02-21T12:38:17.293Z,59.92
2019-02-21T12:40:46.696Z,60.13
2019-02-21T12:43:16.044Z,59.77
2019-02-21T12:45:45.398Z,59.59
2019-02-21T12:48:14.696Z,59.45
2019-02-21T12:50:44.694Z,58.90
2019-02-21T12:53:13.309Z,59.07
2019-02-21T12:55:42.606Z,58.91
2019-02-21T12:58:11.909Z,59.26
2019-02-21T13:00:41.330Z,59.71
2019-02-21T13:03:10.611Z,59.75
2019-02-21T13:05:41.379Z,60.17
2019-02-21T13:08:09.440Z,60.14
2019-02-21T13:10:38.719Z,60.24
2019-02-21T13:13:08.015Z,59.98
2019-02-21T13:15:37.334Z,60.09
2019-02-21T13:18:15.506Z,60.17
2019-02-21T13:20:36.029Z,60.49
2019-02-21T13:23:05.407Z,60.55
2019-02-21T13:25:34.698Z,60.77
2019-02-21T13:28:04.040Z,60.35
2019-02-21T13:30:33.405Z,60.73
2019-02-21T13:33:02.757Z,60.58
2019-02-21T13:35:32.023Z,60.11
2019-02-21T13:38:01.462Z,60.11
2019-02-21T13:40:30.802Z,60.25
2019-02-21T13:43:00.113Z,59.82
2019-02-21T13:45:29.402Z,59.29
2019-02-21T13:47:58.723Z,58.68
2019-02-21T13:50:28.129Z,59.70
2019-02-21T13:52:57.462Z,60.27
2019-02-21T13:55:26.771Z,61.26
2019-02-21T13:57:56.039Z,61.90
2019-02-21T14:00:25.356Z,61.79
2019-02-21T14:02:54.631Z,61.46
2019-02-21T14:05:23.888Z,62.05
2019-02-21T14:07:53.271Z,61.87
2019-02-21T14:10:22.494Z,62.03
2019-02-21T14:12:51.821Z,62.42
2019-02-21T14:15:22.831Z,62.32
2019-02-21T14:17:52.175Z,62.21
2019-02-21T14:20:21.473Z,62.09
2019-02-21T14:22:50.763Z,62.42
2019-02-21T14:25:20.095Z,62.91
2019-02-21T14:27:49.385Z,63.28
2019-02-21T14:30:18.779Z,63.15
2019-02-21T14:32:48.060Z,63.12
2019-02-21T14:35:17.358Z,63.16
2019-02-21T14:37:46.668Z,63.53
2019-02-21T14:40:16.020Z,64.19
2019-02-21T14:42:45.421Z,64.45
2019-02-21T14:45:16.277Z,64.11
2019-02-21T14:47:45.587Z,63.99
2019-02-21T14:50:14.847Z,63.85
2019-02-21T14:52:44.132Z,64.06
2019-02-21T14:55:13.832Z,64.66
2019-02-21T14:57:43.128Z,65.21
2019-02-21T15:00:15.306Z,65.37
2019-02-21T15:02:44.596Z,66.02
2019-02-21T15:05:13.958Z,66.06
2019-02-21T15:07:43.269Z,67.00
2019-02-21T15:10:12.640Z,67.47
2019-02-21T15:12:42.065Z,69.18
2019-02-21T15:15:14.386Z,70.24
2019-02-21T15:17:43.727Z,70.91
2019-02-21T15:20:13.749Z,71.07
2019-02-21T15:22:43.240Z,70.88
2019-02-21T15:25:12.528Z,71.37
2019-02-21T15:27:41.847Z,71.00
2019-02-21T15:30:13.554Z,71.10
2019-02-21T15:32:44.761Z,71.23
2019-02-21T15:35:12.195Z,71.48
2019-02-21T15:37:41.664Z,70.91
2019-02-21T15:40:10.973Z,70.74
2019-02-21T15:42:40.260Z,70.71
2019-02-21T15:45:21.945Z,71.00
2019-02-21T15:47:40.893Z,71.68
2019-02-21T15:50:11.505Z,73.99
2019-02-21T15:52:40.828Z,75.21
2019-02-21T15:55:12.700Z,75.51
2019-02-21T15:57:40.564Z,75.49
2019-02-21T16:00:11.817Z,75.94
2019-02-21T16:02:41.301Z,75.86
2019-02-21T16:05:10.812Z,76.01
2019-02-21T16:07:39.983Z,75.89
2019-02-21T16:10:11.346Z,75.80
2019-02-21T16:12:43.843Z,75.62
2019-02-21T16:15:16.073Z,75.55
2019-02-21T16:17:42.085Z,75.35
2019-02-21T16:20:12.409Z,75.68
2019-02-21T16:22:41.744Z,76.27
2019-02-21T16:25:13.087Z,76.12
2019-02-21T16:27:42.363Z,76.61
2019-02-21T16:30:12.761Z,77.07
2019-02-21T16:32:40.988Z,78.46
2019-02-21T16:35:11.021Z,79.60
2019-02-21T16:37:40.409Z,79.94
2019-02-21T16:40:11.263Z,80.26
2019-02-21T16:42:40.758Z,80.53
2019-02-21T16:45:11.378Z,80.73
2019-02-21T16:47:41.011Z,80.81
2019-02-21T16:50:11.254Z,81.00
2019-02-21T16:52:40.623Z,80.93
2019-02-21T16:55:12.178Z,81.02
2019-02-21T16:57:41.484Z,81.26
2019-02-21T17:00:11.807Z,81.43
2019-02-21T17:02:41.156Z,81.49
2019-02-21T17:05:10.599Z,81.49
2019-02-21T17:07:40.018Z,81.74
2019-02-21T17:10:09.492Z,82.19
2019-02-21T17:12:38.849Z,82.37
2019-02-21T17:15:09.351Z,82.62
2019-02-21T17:17:38.699Z,82.90
2019-02-21T17:20:09.875Z,82.80
2019-02-21T17:22:39.330Z,83.08
2019-02-21T17:25:09.755Z,83.74
2019-02-21T17:27:39.107Z,83.74
2019-02-21T17:30:09.565Z,83.65
2019-02-21T17:32:38.866Z,83.80
2019-02-21T17:35:08.239Z,83.78
2019-02-21T17:37:37.662Z,84.21
2019-02-21T17:40:08.622Z,84.34
2019-02-21T17:42:37.940Z,84.43
2019-02-21T17:45:08.040Z,84.18
2019-02-21T17:47:37.441Z,84.33
2019-02-21T17:50:07.777Z,84.11
2019-02-21T17:52:37.093Z,84.41
2019-02-21T17:55:06.610Z,84.64
2019-02-21T17:57:37.007Z,84.67
2019-02-21T18:00:07.433Z,84.43
2019-02-21T18:02:36.822Z,84.90
2019-02-21T18:05:06.531Z,84.89
2019-02-21T18:07:36.731Z,85.15
2019-02-21T18:10:06.033Z,85.12
2019-02-21T18:12:35.368Z,85.07
2019-02-21T18:15:05.310Z,85.32
2019-02-21T18:17:34.629Z,85.77
2019-02-21T18:20:04.010Z,85.77
2019-02-21T18:22:33.315Z,85.50
2019-02-21T18:25:02.605Z,85.70
2019-02-21T18:27:31.987Z,85.58
2019-02-21T18:30:01.357Z,85.31
2019-02-21T18:32:30.793Z,85.50
2019-02-21T18:35:00.318Z,85.37
2019-02-21T18:37:29.451Z,85.27
2019-02-21T18:39:58.794Z,85.41
2019-02-21T18:42:28.179Z,85.62
2019-02-21T18:44:57.524Z,85.81
2019-02-21T18:47:26.915Z,85.69
2019-02-21T18:49:56.247Z,85.65
2019-02-21T18:52:25.607Z,85.82
2019-02-21T18:54:54.897Z,85.79
2019-02-21T18:57:24.195Z,86.04
2019-02-21T18:59:53.590Z,86.24
2019-02-21T19:02:22.930Z,86.50
2019-02-21T19:04:52.247Z,87.01
2019-02-21T19:07:21.634Z,87.13
2019-02-21T19:09:50.999Z,87.31
2019-02-21T19:12:20.336Z,87.57
2019-02-21T19:14:49.735Z,87.78
2019-02-21T19:17:19.062Z,87.65
2019-02-21T19:19:48.369Z,87.79
2019-02-21T19:22:17.672Z,87.87
2019-02-21T19:24:48.365Z,88.25
2019-02-21T19:27:17.727Z,88.10
2019-02-21T19:29:47.020Z,88.55
2019-02-21T19:32:16.437Z,88.32
2019-02-21T19:34:45.704Z,88.38
2019-02-21T19:37:15.019Z,88.75
2019-02-21T19:39:44.328Z,89.20
2019-02-21T19:42:13.661Z,89.23
2019-02-21T19:44:42.977Z,89.33
2019-02-21T19:47:12.383Z,89.37
2019-02-21T19:49:41.987Z,89.72
2019-02-21T19:52:11.373Z,89.86
2019-02-21T19:54:40.677Z,89.99
2019-02-21T19:57:10.062Z,90.24
2019-02-21T19:59:39.360Z,90.08
2019-02-21T20:02:08.664Z,90.08
2019-02-21T20:04:37.991Z,90.17
2019-02-21T20:07:07.269Z,90.33
2019-02-21T20:09:36.589Z,90.29
2019-02-21T20:12:05.920Z,90.40
2019-02-21T20:14:35.307Z,90.39
2019-02-21T20:17:04.626Z,90.32
2019-02-21T20:19:34.021Z,90.43
2019-02-21T20:22:03.389Z,90.45
2019-02-21T20:24:32.669Z,90.39
2019-02-21T20:27:02.004Z,90.38
2019-02-21T20:29:31.355Z,90.44
2019-02-21T20:32:00.657Z,90.40
2019-02-21T20:34:29.961Z,90.54
2019-02-21T20:36:59.294Z,90.72
2019-02-21T20:39:28.611Z,90.49
2019-02-21T20:41:57.996Z,90.94
2019-02-21T20:44:27.318Z,90.87
2019-02-21T20:46:56.603Z,90.93
2019-02-21T20:49:25.926Z,90.81
2019-02-21T20:51:56.795Z,90.91
2019-02-21T20:54:26.172Z,91.03
2019-02-21T20:56:55.546Z,91.09
2019-02-21T20:59:24.846Z,91.05
2019-02-21T21:01:54.191Z,91.05
2019-02-21T21:04:23.550Z,91.12
2019-02-21T21:06:52.896Z,91.16
2019-02-21T21:09:22.214Z,91.24
2019-02-21T21:11:51.588Z,91.33
2019-02-21T21:14:20.959Z,91.24
2019-02-21T21:16:50.289Z,91.30
2019-02-21T21:19:19.568Z,91.42
2019-02-21T21:21:48.989Z,91.34
2019-02-21T21:24:18.374Z,91.18
2019-02-21T21:26:47.682Z,91.21
2019-02-21T21:29:16.974Z,91.16
2019-02-21T21:31:46.291Z,91.19
2019-02-21T21:34:15.575Z,91.26
2019-02-21T21:36:44.895Z,91.22
2019-02-21T21:39:14.202Z,91.27
2019-02-21T21:41:43.506Z,91.17
2019-02-21T21:44:12.799Z,91.10
2019-02-21T21:46:42.060Z,91.09
2019-02-21T21:49:11.490Z,90.90
2019-02-21T21:51:40.911Z,90.80
2019-02-21T21:54:10.222Z,90.75
2019-02-21T21:56:39.613Z,90.68
2019-02-21T21:59:08.985Z,90.59
2019-02-21T22:01:38.433Z,90.62
2019-02-21T22:04:07.909Z,90.54
2019-02-21T22:06:37.209Z,90.53
2019-02-21T22:09:06.797Z,90.69
2019-02-21T22:11:36.061Z,90.59
2019-02-21T22:14:05.339Z,90.51
2019-02-21T22:16:34.636Z,90.46
2019-02-21T22:19:03.908Z,90.51
2019-02-21T22:21:33.238Z,90.46
2019-02-21T22:24:04.893Z,90.75
2019-02-21T22:26:34.267Z,90.75
2019-02-21T22:29:03.620Z,90.61
2019-02-21T22:31:32.929Z,90.82
2019-02-21T22:34:02.312Z,90.91
2019-02-21T22:36:31.888Z,90.90
2019-02-21T22:39:02.114Z,90.83
2019-02-21T22:41:30.666Z,90.96
2019-02-21T22:44:00.026Z,91.35
2019-02-21T22:46:29.293Z,91.35
2019-02-21T22:48:58.579Z,91.05
2019-02-21T22:51:27.936Z,91.10
2019-02-21T22:53:59.278Z,91.15
2019-02-21T22:56:28.740Z,91.16
2019-02-21T22:58:58.055Z,91.17
2019-02-21T23:01:36.334Z,91.16
2019-02-21T23:04:46.815Z,90.91
2019-02-21T23:07:50.035Z,91.28
2019-02-21T23:10:19.432Z,91.25
2019-02-21T23:12:48.741Z,91.36
2019-02-21T23:15:20.840Z,91.35
2019-02-21T23:17:50.311Z,91.43
2019-02-21T23:20:19.731Z,91.40
2019-02-21T23:22:48.996Z,91.14
2019-02-21T23:25:18.358Z,91.14
2019-02-21T23:27:50.369Z,91.33
2019-02-21T23:30:19.721Z,91.15
2019-02-21T23:32:49.085Z,91.55
2019-02-21T23:35:20.310Z,91.33
2019-02-21T23:37:49.808Z,91.33
2019-02-21T23:40:19.245Z,91.39
2019-02-21T23:42:48.493Z,91.38
2019-02-21T23:45:17.785Z,91.35
2019-02-21T23:47:49.899Z,91.33
2019-02-21T23:50:16.462Z,91.17
2019-02-21T23:52:45.877Z,91.17
2019-02-21T23:55:15.151Z,91.17
2019-02-21T23:57:44.427Z,91.20
